createdAt,value
2022-10-04T13:14:23.527Z,1.40
2022-10-04T13:14:35.164Z,1.20
2022-10-04T13:14:45.804Z,1.10
2022-10-04T13:14:56.456Z,1.00
2022-10-04T13:15:07.103Z,1.10
2022-10-04T13:15:17.734Z,1.20
2022-10-04T13:15:28.433Z,1.30
2022-10-04T13:17:29.900Z,1.30
2022-10-04T13:17:39.501Z,1.00
2022-10-04T13:17:44.629Z,1.30
2022-10-04T13:17:55.267Z,1.40
2022-10-04T13:18:05.895Z,1.30
2022-10-04T13:18:16.651Z,1.30
2022-10-04T13:18:27.316Z,1.30
2022-10-04T13:18:37.947Z,1.20
2022-10-04T13:18:48.578Z,1.20
2022-10-04T13:18:59.325Z,1.10
2022-10-04T13:19:10.044Z,1.10
2022-10-04T13:19:20.618Z,1.10
2022-10-04T13:19:31.291Z,1.10
2022-10-04T13:19:41.920Z,1.00
2022-10-04T13:19:52.557Z,1.20
2022-10-04T13:20:03.199Z,1.20
2022-10-04T13:20:13.845Z,1.30
2022-10-04T13:20:24.484Z,1.20
2022-10-04T13:20:35.122Z,1.10
2022-10-04T13:20:45.769Z,1.10
2022-10-04T13:20:56.425Z,1.20
2022-10-04T13:21:07.058Z,1.10
2022-10-04T13:21:17.708Z,1.20
2022-10-04T13:21:28.349Z,1.20
2022-10-04T13:21:38.979Z,1.20
2022-10-04T13:21:49.611Z,1.10
2022-10-04T13:22:00.249Z,1.00
2022-10-04T13:22:10.890Z,1.00
2022-10-04T13:22:44.038Z,1.20
2022-10-04T13:23:51.167Z,1.00
2022-10-04T13:24:02.796Z,1.00
2022-10-04T13:24:15.558Z,1.00
2022-10-04T13:24:24.185Z,1.00
2022-10-04T13:24:38.575Z,1.00
2022-10-04T13:24:45.706Z,1.00
2022-10-04T13:24:56.339Z,1.10
2022-10-04T13:25:06.978Z,1.20
2022-10-04T13:25:18.559Z,1.30
2022-10-04T13:25:28.206Z,1.20
2022-10-04T13:25:38.830Z,1.10
2022-10-04T13:25:49.450Z,1.10
2022-10-04T13:26:03.763Z,1.10
2022-10-04T13:26:10.847Z,1.20
2022-10-04T13:26:21.486Z,1.20
2022-10-04T13:26:32.153Z,1.00
2022-10-04T13:26:44.148Z,1.00
2022-10-04T13:26:53.897Z,0.90
2022-10-04T13:27:04.490Z,0.90
2022-10-04T13:27:36.163Z,1.00
2022-10-04T13:27:41.309Z,1.20
2022-10-04T13:27:52.028Z,1.20
2022-10-04T13:28:02.711Z,1.20
2022-10-04T13:28:13.452Z,1.10
2022-10-04T13:28:24.134Z,1.20
2022-10-04T13:28:34.838Z,1.20
2022-10-04T13:28:45.510Z,1.30
2022-10-04T13:28:56.177Z,1.40
2022-10-04T13:29:06.812Z,1.20
2022-10-04T13:29:17.463Z,1.10
2022-10-04T13:29:28.092Z,1.00
2022-10-04T13:29:38.888Z,1.20
2022-10-04T13:29:49.531Z,1.20
2022-10-04T13:30:07.036Z,1.20
2022-10-04T13:30:12.244Z,1.10
2022-10-04T13:30:22.903Z,1.20
2022-10-04T13:30:33.541Z,1.30
2022-10-04T13:30:59.005Z,1.20
2022-10-04T13:31:04.201Z,1.10
2022-10-04T13:31:16.598Z,1.20
2022-10-04T13:31:25.778Z,1.60
2022-10-04T13:31:36.482Z,1.40
2022-10-04T13:31:49.584Z,1.40
2022-10-04T13:32:02.160Z,1.00
2022-10-04T13:32:10.494Z,0.80
2022-10-04T13:32:20.571Z,0.90
2022-10-04T13:32:30.215Z,1.10
2022-10-04T13:32:41.575Z,1.10
2022-10-04T13:32:53.157Z,1.00
2022-10-04T13:33:05.142Z,1.00
2022-10-04T13:33:28.468Z,1.00
2022-10-04T13:33:33.799Z,1.30
2022-10-04T13:33:47.072Z,1.30
2022-10-04T13:33:55.223Z,1.10
2022-10-04T13:34:05.876Z,1.00
2022-10-04T13:34:16.500Z,0.90
2022-10-04T13:34:27.155Z,0.90
2022-10-04T13:34:37.807Z,1.20
2022-10-04T13:34:48.444Z,1.30
2022-10-04T13:34:59.081Z,1.30
2022-10-04T13:35:09.713Z,1.10
2022-10-04T13:35:21.632Z,1.10
2022-10-04T13:35:36.673Z,1.20
2022-10-04T13:35:56.970Z,1.30
2022-10-04T13:36:02.127Z,1.20
2022-10-04T13:36:12.769Z,1.00
2022-10-04T13:36:23.402Z,1.00
2022-10-04T13:36:34.038Z,1.10
2022-10-04T13:36:44.992Z,1.00
2022-10-04T13:36:55.626Z,0.90
2022-10-04T13:37:08.956Z,1.10
2022-10-04T13:37:17.093Z,1.20
2022-10-04T13:37:27.788Z,1.20
2022-10-04T13:37:38.960Z,0.90
2022-10-04T13:37:53.526Z,1.00
2022-10-04T13:37:59.688Z,0.80
2022-10-04T13:38:17.259Z,0.80
2022-10-04T13:38:26.074Z,0.80
2022-10-04T13:38:35.969Z,1.00
2022-10-04T13:38:48.211Z,1.10
2022-10-04T13:38:59.673Z,1.10
2022-10-04T13:39:19.971Z,1.10
2022-10-04T13:39:25.128Z,1.20
2022-10-04T13:39:35.746Z,1.20
2022-10-04T13:39:46.479Z,1.10
2022-10-04T13:39:57.153Z,1.00
2022-10-04T13:40:07.817Z,1.10
2022-10-04T13:40:21.079Z,1.10
2022-10-04T13:40:33.601Z,1.20
2022-10-04T13:40:44.083Z,1.00
2022-10-04T13:40:50.723Z,1.20
2022-10-04T13:41:05.900Z,1.20
2022-10-04T13:41:12.030Z,1.30
2022-10-04T13:41:23.462Z,1.10
2022-10-04T13:41:33.592Z,1.10
2022-10-04T13:41:47.832Z,1.10
2022-10-04T13:41:55.203Z,1.10
2022-10-04T13:42:12.488Z,0.90
2022-10-04T13:42:18.992Z,0.90
2022-10-04T13:42:29.974Z,1.00
2022-10-04T13:43:00.672Z,1.20
2022-10-04T13:43:05.823Z,1.00
2022-10-04T13:43:18.971Z,0.80
2022-10-04T13:43:27.115Z,1.00
2022-10-04T13:43:37.785Z,1.20
2022-10-04T13:43:48.391Z,1.10
2022-10-04T13:43:59.572Z,1.10
2022-10-04T13:44:09.703Z,1.00
2022-10-04T13:44:20.332Z,1.10
2022-10-04T13:44:30.973Z,1.10
2022-10-04T13:44:49.078Z,1.30
2022-10-04T13:44:54.208Z,1.20
2022-10-04T13:45:04.868Z,1.10
2022-10-04T13:45:15.503Z,1.10
2022-10-04T13:45:26.222Z,1.00
2022-10-04T13:45:36.923Z,1.00
2022-10-04T13:45:47.605Z,1.00
2022-10-04T13:45:58.321Z,1.20
2022-10-04T13:46:09.017Z,1.20
2022-10-04T13:46:19.658Z,1.00
2022-10-04T13:46:30.303Z,1.10
2022-10-04T13:46:40.936Z,1.00
2022-10-04T13:46:51.597Z,1.10
2022-10-04T13:47:02.270Z,1.00
2022-10-04T13:47:13.667Z,1.20
2022-10-04T13:47:23.936Z,1.10
2022-10-04T13:47:34.556Z,1.00
2022-10-04T13:47:45.193Z,0.90
2022-10-04T13:47:55.827Z,1.00
2022-10-04T13:48:12.546Z,0.90
2022-10-04T13:48:22.019Z,0.90
2022-10-04T13:48:28.403Z,1.10
2022-10-04T13:48:39.021Z,1.20
2022-10-04T13:48:49.682Z,1.10
2022-10-04T13:49:00.337Z,0.90
2022-10-04T13:49:12.235Z,0.90
2022-10-04T13:49:31.680Z,1.10
2022-10-04T13:49:39.980Z,1.10
2022-10-04T13:49:54.971Z,1.00
2022-10-04T13:50:04.583Z,1.00
2022-10-04T13:50:13.595Z,1.00
2022-10-04T13:50:23.474Z,1.00
2022-10-04T13:50:36.471Z,1.10
2022-10-04T13:50:44.612Z,1.30
2022-10-04T13:50:57.368Z,1.20
2022-10-04T13:51:13.859Z,1.20
2022-10-04T13:51:19.210Z,1.00
2022-10-04T13:51:29.846Z,1.10
2022-10-04T13:51:41.467Z,1.30
2022-10-04T13:51:51.129Z,1.30
2022-10-04T13:52:01.776Z,1.20
2022-10-04T13:52:12.409Z,1.10
2022-10-04T13:52:23.058Z,1.30
2022-10-04T13:52:33.821Z,1.30
2022-10-04T13:52:44.519Z,1.20
2022-10-04T13:52:56.441Z,1.10
2022-10-04T13:53:07.378Z,1.10
2022-10-04T13:53:17.055Z,1.00
2022-10-04T13:53:32.339Z,1.10
2022-10-04T13:53:41.355Z,1.10
2022-10-04T13:54:10.505Z,1.00
2022-10-04T13:54:24.581Z,1.20
2022-10-04T13:54:29.713Z,1.20
2022-10-04T13:54:47.781Z,1.00
2022-10-04T13:54:56.582Z,1.00
2022-10-04T13:55:04.979Z,0.90
2022-10-04T13:55:14.268Z,0.90
2022-10-04T13:55:23.882Z,1.00
2022-10-04T13:55:34.524Z,1.10
2022-10-04T13:55:45.200Z,1.10
2022-10-04T13:56:00.231Z,0.90
2022-10-04T13:56:06.941Z,1.00
2022-10-04T13:56:17.576Z,1.30
2022-10-04T13:56:30.970Z,1.30
2022-10-04T13:56:39.107Z,1.30
2022-10-04T13:56:49.739Z,1.20
2022-10-04T13:57:00.372Z,1.20
2022-10-04T13:57:11.013Z,1.20
2022-10-04T13:57:21.661Z,1.10
2022-10-04T13:57:32.297Z,1.00
2022-10-04T13:57:42.948Z,1.00
2022-10-04T13:57:53.597Z,1.00
2022-10-04T13:58:04.239Z,0.90
2022-10-04T13:58:14.870Z,0.90
2022-10-04T13:58:25.508Z,0.90
2022-10-04T13:58:36.164Z,0.80
2022-10-04T13:58:46.803Z,1.00
2022-10-04T13:58:57.436Z,0.90
2022-10-04T13:59:08.090Z,1.10
2022-10-04T13:59:18.714Z,1.20
2022-10-04T13:59:34.434Z,1.20
2022-10-04T13:59:39.927Z,1.20
2022-10-04T13:59:51.642Z,1.10
2022-10-04T14:00:03.158Z,1.20
2022-10-04T14:00:11.783Z,1.30
2022-10-04T14:00:22.448Z,1.10
2022-10-04T14:00:33.089Z,0.90
2022-10-04T14:00:43.781Z,0.90
2022-10-04T14:00:54.460Z,1.00
2022-10-04T14:01:06.049Z,1.00
2022-10-04T14:01:16.543Z,1.10
2022-10-04T14:01:26.748Z,1.00
2022-10-04T14:01:37.568Z,1.10
2022-10-04T14:01:49.373Z,1.00
2022-10-04T14:01:59.011Z,1.00
2022-10-04T14:02:19.554Z,1.00
2022-10-04T14:02:24.675Z,1.00
2022-10-04T14:02:35.319Z,0.90
2022-10-04T14:02:45.997Z,0.80
2022-10-04T14:02:59.177Z,0.90
2022-10-04T14:03:07.351Z,1.10
2022-10-04T14:03:17.994Z,1.10
2022-10-04T14:03:28.722Z,1.10
2022-10-04T14:03:39.473Z,1.00
2022-10-04T14:03:50.091Z,1.20
2022-10-04T14:04:02.120Z,1.10
2022-10-04T14:04:11.252Z,1.00
2022-10-04T14:04:21.893Z,0.80
2022-10-04T14:04:39.482Z,0.80
2022-10-04T14:04:44.606Z,0.80
2022-10-04T14:04:56.892Z,0.90
2022-10-04T14:05:10.631Z,1.00
2022-10-04T14:05:23.495Z,1.10
2022-10-04T14:05:28.595Z,1.10
2022-10-04T14:05:39.228Z,1.10
2022-10-04T14:05:49.857Z,1.00
2022-10-04T14:06:00.497Z,0.80
2022-10-04T14:06:11.726Z,0.80
2022-10-04T14:06:23.122Z,0.90
2022-10-04T14:06:35.491Z,0.90
2022-10-04T14:06:45.977Z,1.00
2022-10-04T14:07:02.486Z,0.90
2022-10-04T14:07:07.627Z,1.00
2022-10-04T14:07:18.983Z,0.90
2022-10-04T14:07:29.133Z,0.80
2022-10-04T14:07:55.092Z,0.70
2022-10-04T14:08:09.034Z,0.90
2022-10-04T14:08:15.771Z,1.00
2022-10-04T14:08:24.912Z,1.00
2022-10-04T14:08:35.567Z,1.00
2022-10-04T14:08:46.198Z,0.90
2022-10-04T14:08:56.841Z,0.80
2022-10-04T14:09:07.500Z,1.00
2022-10-04T14:09:19.251Z,1.10
2022-10-04T14:09:28.880Z,1.40
2022-10-04T14:09:39.512Z,1.20
2022-10-04T14:09:50.138Z,1.20
2022-10-04T14:10:05.117Z,0.90
2022-10-04T14:10:11.742Z,0.80
2022-10-04T14:10:23.091Z,0.90
2022-10-04T14:10:34.818Z,1.10
2022-10-04T14:10:43.968Z,1.20
2022-10-04T14:10:54.578Z,1.20
2022-10-04T14:11:05.214Z,1.10
2022-10-04T14:11:22.489Z,1.20
2022-10-04T14:11:27.617Z,1.30
2022-10-04T14:11:38.246Z,1.20
2022-10-04T14:11:49.142Z,1.00
2022-10-04T14:12:03.980Z,0.80
2022-10-04T14:12:10.432Z,0.90
2022-10-04T14:12:21.052Z,1.00
2022-10-04T14:12:31.673Z,1.00
2022-10-04T14:12:47.359Z,0.90
2022-10-04T14:12:53.590Z,1.10
2022-10-04T14:13:03.743Z,1.20
2022-10-04T14:13:14.382Z,1.30
2022-10-04T14:13:25.007Z,1.10
2022-10-04T14:13:44.230Z,1.20
2022-10-04T14:13:51.979Z,1.20
2022-10-04T14:14:00.126Z,1.10
2022-10-04T14:14:10.759Z,1.10
2022-10-04T14:14:21.389Z,1.10
2022-10-04T14:14:32.017Z,1.10
2022-10-04T14:14:42.643Z,1.20
2022-10-04T14:14:53.272Z,1.10
2022-10-04T14:15:03.900Z,1.20
2022-10-04T14:15:14.538Z,1.10
2022-10-04T14:15:25.220Z,1.00
2022-10-04T14:15:35.861Z,1.00
2022-10-04T14:15:46.493Z,0.90
2022-10-04T14:15:57.127Z,1.10
2022-10-04T14:16:08.170Z,1.00
2022-10-04T14:16:18.361Z,1.10
2022-10-04T14:16:29.050Z,1.00
2022-10-04T14:16:39.751Z,1.00
2022-10-04T14:16:50.419Z,1.00
2022-10-04T14:17:01.050Z,1.10
2022-10-04T14:17:11.749Z,1.10
2022-10-04T14:17:22.383Z,1.00
2022-10-04T14:17:33.030Z,0.90
2022-10-04T14:17:43.668Z,0.80
2022-10-04T14:17:54.307Z,0.70
2022-10-04T14:18:04.972Z,0.90
2022-10-04T14:18:18.270Z,0.90
2022-10-04T14:18:27.525Z,0.90
2022-10-04T14:18:37.277Z,0.90
2022-10-04T14:18:47.888Z,1.00
2022-10-04T14:19:01.098Z,1.10
2022-10-04T14:19:10.009Z,1.00
2022-10-04T14:19:20.161Z,0.90
2022-10-04T14:19:30.798Z,0.90
2022-10-04T14:19:41.476Z,0.90
2022-10-04T14:19:52.115Z,0.90
2022-10-04T14:20:02.757Z,1.00
2022-10-04T14:20:13.387Z,1.10
2022-10-04T14:20:24.018Z,1.10
2022-10-04T14:20:34.656Z,1.00
2022-10-04T14:20:46.097Z,1.00
2022-10-04T14:20:57.097Z,1.00
2022-10-04T14:21:09.497Z,1.00
2022-10-04T14:21:19.544Z,1.30
2022-10-04T14:21:28.437Z,1.50
2022-10-04T14:21:39.067Z,1.50
2022-10-04T14:21:49.708Z,1.40
2022-10-04T14:22:00.324Z,1.20
2022-10-04T14:22:10.961Z,1.10
2022-10-04T14:22:21.601Z,0.90
2022-10-04T14:22:32.261Z,0.90
2022-10-04T14:22:42.878Z,1.00
2022-10-04T14:22:53.532Z,1.20
2022-10-04T14:23:04.165Z,1.10
2022-10-04T14:23:14.797Z,1.00
2022-10-04T14:23:26.282Z,1.10
2022-10-04T14:23:36.415Z,1.00
2022-10-04T14:23:47.047Z,1.00
2022-10-04T14:23:57.668Z,0.90
2022-10-04T14:24:08.296Z,0.80
2022-10-04T14:24:18.930Z,1.00
2022-10-04T14:24:29.695Z,1.00
2022-10-04T14:24:40.359Z,1.10
2022-10-04T14:24:50.990Z,1.10
2022-10-04T14:25:01.620Z,1.00
2022-10-04T14:25:12.248Z,1.00
2022-10-04T14:25:22.889Z,1.10
2022-10-04T14:25:33.523Z,1.10
2022-10-04T14:25:44.154Z,1.00
2022-10-04T14:25:54.793Z,0.90
2022-10-04T14:26:05.425Z,0.80
2022-10-04T14:26:16.049Z,0.80
2022-10-04T14:26:26.668Z,1.10
2022-10-04T14:26:37.339Z,1.00
2022-10-04T14:26:48.366Z,1.20
2022-10-04T14:26:58.590Z,1.20
2022-10-04T14:27:09.224Z,1.00
2022-10-04T14:27:19.860Z,1.00
2022-10-04T14:27:31.019Z,1.00
2022-10-04T14:27:41.145Z,1.10
2022-10-04T14:27:51.863Z,1.10
2022-10-04T14:28:02.547Z,1.10
2022-10-04T14:28:13.224Z,1.10
2022-10-04T14:28:23.894Z,1.20
2022-10-04T14:28:34.585Z,1.20
2022-10-04T14:28:45.181Z,1.20
2022-10-04T14:28:55.808Z,1.10
2022-10-04T14:29:06.438Z,1.00
2022-10-04T14:29:17.065Z,1.10
2022-10-04T14:29:27.696Z,1.10
2022-10-04T14:29:38.339Z,1.30
2022-10-04T14:29:48.985Z,1.20
2022-10-04T14:29:59.616Z,1.10
2022-10-04T14:30:10.250Z,1.10
2022-10-04T14:30:20.880Z,1.00
2022-10-04T14:30:31.511Z,1.10
2022-10-04T14:30:42.152Z,1.10
2022-10-04T14:30:52.796Z,0.90
2022-10-04T14:31:03.426Z,1.00
2022-10-04T14:31:14.144Z,1.20
2022-10-04T14:31:24.854Z,1.20
2022-10-04T14:31:43.674Z,1.50
2022-10-04T14:31:48.487Z,1.60
2022-10-04T14:31:56.795Z,1.50
2022-10-04T14:32:07.479Z,1.10
2022-10-04T14:32:18.199Z,0.90
2022-10-04T14:32:28.828Z,0.90
2022-10-04T14:32:39.460Z,1.10
2022-10-04T14:32:50.087Z,1.20
2022-10-04T14:33:00.733Z,1.20
2022-10-04T14:33:11.396Z,1.30
2022-10-04T14:33:22.039Z,1.30
2022-10-04T14:33:32.689Z,1.30
2022-10-04T14:33:43.321Z,0.90
2022-10-04T14:33:53.953Z,0.90
2022-10-04T14:34:04.600Z,0.80
2022-10-04T14:34:15.232Z,1.00
2022-10-04T14:34:25.884Z,1.10
2022-10-04T14:34:36.534Z,1.00
2022-10-04T14:34:47.170Z,1.00
2022-10-04T14:34:57.799Z,1.00
2022-10-04T14:35:08.431Z,1.10
2022-10-04T14:35:19.059Z,1.00
2022-10-04T14:35:29.678Z,1.10
2022-10-04T14:35:40.316Z,0.90
2022-10-04T14:35:51.264Z,1.30
2022-10-04T14:36:01.903Z,1.30
2022-10-04T14:36:12.534Z,1.40
2022-10-04T14:36:24.077Z,1.20
2022-10-04T14:36:33.713Z,1.20
2022-10-04T14:36:44.349Z,1.10
2022-10-04T14:36:54.992Z,1.10
2022-10-04T14:37:05.635Z,1.10
2022-10-04T14:37:16.265Z,1.00
2022-10-04T14:37:26.906Z,1.00
2022-10-04T14:37:37.545Z,1.00
2022-10-04T14:37:48.178Z,0.90
2022-10-04T14:37:58.808Z,1.00
2022-10-04T14:38:09.459Z,1.00
2022-10-04T14:38:23.189Z,1.10
2022-10-04T14:38:30.715Z,1.00
2022-10-04T14:38:41.351Z,1.20
2022-10-04T14:38:51.983Z,1.10
2022-10-04T14:39:02.616Z,1.00
2022-10-04T14:39:13.257Z,1.00
2022-10-04T14:39:23.904Z,1.00
2022-10-04T14:39:34.538Z,1.10
2022-10-04T14:39:45.181Z,1.00
2022-10-04T14:39:55.815Z,1.00
2022-10-04T14:40:06.463Z,1.00
2022-10-04T14:40:17.103Z,1.10
2022-10-04T14:40:27.734Z,1.20
2022-10-04T14:40:38.377Z,1.00
2022-10-04T14:40:49.016Z,1.00
2022-10-04T14:40:59.647Z,1.00
2022-10-04T14:41:10.291Z,1.20
2022-10-04T14:41:20.928Z,1.10
2022-10-04T14:41:31.553Z,1.00
2022-10-04T14:41:42.402Z,1.00
2022-10-04T14:41:53.169Z,1.20
2022-10-04T14:42:03.859Z,1.30
2022-10-04T14:42:14.535Z,1.20
2022-10-04T14:42:25.173Z,1.00
2022-10-04T14:42:35.812Z,1.00
2022-10-04T14:42:46.457Z,0.90
2022-10-04T14:42:57.093Z,1.20
2022-10-04T14:43:07.739Z,1.20
2022-10-04T14:43:18.373Z,1.20
2022-10-04T14:43:29.014Z,1.00
2022-10-04T14:43:41.515Z,0.90
2022-10-04T14:43:50.153Z,0.90
2022-10-04T14:44:00.784Z,0.90
2022-10-04T14:44:11.436Z,1.10
2022-10-04T14:44:22.101Z,1.30
2022-10-04T14:44:32.782Z,1.30
2022-10-04T14:44:45.324Z,1.10
2022-10-04T14:44:54.105Z,0.90
2022-10-04T14:45:04.731Z,0.90
2022-10-04T14:45:15.375Z,0.90
2022-10-04T14:45:26.071Z,0.90
2022-10-04T14:45:36.790Z,1.20
2022-10-04T14:45:47.477Z,1.10
2022-10-04T14:45:58.126Z,1.00
2022-10-04T14:46:08.833Z,1.20
2022-10-04T14:46:19.525Z,1.30
2022-10-04T14:46:30.128Z,1.30
2022-10-04T14:46:40.858Z,1.10
2022-10-04T14:46:51.552Z,1.00
2022-10-04T14:47:02.171Z,1.10
2022-10-04T14:47:12.813Z,1.10
2022-10-04T14:47:23.535Z,1.00
2022-10-04T14:47:34.236Z,1.00
2022-10-04T14:47:44.904Z,1.00
2022-10-04T14:47:55.510Z,1.10
2022-10-04T14:48:06.147Z,1.00
2022-10-04T14:48:16.792Z,1.00
2022-10-04T14:48:27.433Z,1.00
2022-10-04T14:48:38.091Z,0.90
2022-10-04T14:48:48.758Z,0.90
2022-10-04T14:48:59.407Z,0.70
2022-10-04T14:49:10.047Z,0.80
2022-10-04T14:49:20.683Z,0.90
2022-10-04T14:49:31.335Z,1.10
2022-10-04T14:49:41.942Z,1.00
2022-10-04T14:49:54.725Z,1.10
2022-10-04T14:50:03.260Z,1.00
2022-10-04T14:50:13.992Z,1.00
2022-10-04T14:50:24.629Z,1.30
2022-10-04T14:50:35.299Z,1.30
2022-10-04T14:50:45.947Z,1.30
2022-10-04T14:50:56.571Z,1.00
2022-10-04T14:51:07.204Z,0.90
2022-10-04T14:51:17.850Z,1.00
2022-10-04T14:51:28.486Z,1.00
2022-10-04T14:51:39.107Z,1.10
2022-10-04T14:51:49.745Z,1.20
2022-10-04T14:52:00.400Z,1.20
2022-10-04T14:52:11.037Z,1.20
2022-10-04T14:52:21.671Z,1.20
2022-10-04T14:52:32.302Z,1.20
2022-10-04T14:52:42.949Z,1.10
2022-10-04T14:52:53.566Z,1.10
2022-10-04T14:53:04.204Z,1.10
2022-10-04T14:53:16.507Z,1.20
2022-10-04T14:53:25.621Z,1.00
2022-10-04T14:53:36.253Z,1.00
2022-10-04T14:53:46.942Z,1.00
2022-10-04T14:53:57.575Z,1.10
2022-10-04T14:54:08.203Z,1.20
2022-10-04T14:54:18.836Z,1.30
2022-10-04T14:54:29.482Z,1.30
2022-10-04T14:54:40.126Z,1.30
2022-10-04T14:54:50.759Z,1.10
2022-10-04T14:55:04.177Z,1.10
2022-10-04T14:55:12.064Z,1.00
2022-10-04T14:55:26.032Z,1.10
2022-10-04T14:55:33.574Z,1.10
2022-10-04T14:55:44.166Z,1.30
2022-10-04T14:55:54.828Z,1.30
2022-10-04T14:56:05.472Z,1.10
2022-10-04T14:56:16.109Z,1.20
2022-10-04T14:56:26.803Z,1.10
2022-10-04T14:56:37.439Z,1.40
2022-10-04T14:56:48.583Z,1.30
2022-10-04T14:56:58.801Z,1.30
2022-10-04T14:57:09.437Z,1.00
2022-10-04T14:57:20.069Z,1.10
2022-10-04T14:57:30.722Z,1.00
2022-10-04T14:57:41.358Z,1.00
2022-10-04T14:57:51.991Z,1.00
2022-10-04T14:58:02.624Z,1.00
2022-10-04T14:58:13.258Z,1.00
2022-10-04T14:58:23.914Z,1.10
2022-10-04T14:58:36.109Z,1.20
2022-10-04T14:58:45.253Z,1.10
2022-10-04T14:58:55.902Z,0.90
2022-10-04T14:59:07.116Z,1.00
2022-10-04T14:59:17.254Z,1.20
2022-10-04T14:59:27.889Z,1.20
2022-10-04T14:59:38.525Z,1.10
2022-10-04T14:59:49.163Z,1.10
2022-10-04T14:59:59.955Z,1.00
2022-10-04T15:00:10.575Z,1.00
2022-10-04T15:00:21.218Z,1.30
2022-10-04T15:00:31.883Z,1.20
2022-10-04T15:00:42.512Z,1.30
2022-10-04T15:00:53.165Z,1.00
2022-10-04T15:01:03.852Z,1.00
2022-10-04T15:01:14.632Z,1.20
2022-10-04T15:01:25.373Z,1.40
2022-10-04T15:01:36.030Z,1.40
2022-10-04T15:01:46.699Z,1.00
2022-10-04T15:01:57.307Z,0.90
2022-10-04T15:02:07.955Z,0.90
2022-10-04T15:02:18.603Z,1.10
2022-10-04T15:02:29.237Z,1.10
2022-10-04T15:02:39.893Z,1.20
2022-10-04T15:02:51.114Z,1.00
2022-10-04T15:03:05.384Z,1.00
2022-10-04T15:03:15.634Z,1.00
2022-10-04T15:03:31.920Z,1.20
2022-10-04T15:03:37.074Z,1.40
2022-10-04T15:03:47.707Z,1.10
2022-10-04T15:03:58.395Z,0.80
2022-10-04T15:04:09.057Z,0.90
2022-10-04T15:04:19.823Z,1.00
2022-10-04T15:04:31.356Z,1.00
2022-10-04T15:04:41.527Z,0.90
2022-10-04T15:04:52.119Z,1.20
2022-10-04T15:05:02.760Z,1.30
2022-10-04T15:05:16.038Z,1.30
2022-10-04T15:05:27.007Z,1.00
2022-10-04T15:05:35.241Z,1.00
2022-10-04T15:05:48.533Z,1.10
2022-10-04T15:05:56.675Z,1.10
2022-10-04T15:06:07.338Z,0.90
2022-10-04T15:06:17.974Z,1.00
2022-10-04T15:06:28.625Z,0.90
2022-10-04T15:06:39.258Z,0.80
2022-10-04T15:06:50.661Z,0.90
2022-10-04T15:07:00.770Z,1.20
2022-10-04T15:07:11.403Z,1.20
2022-10-04T15:07:22.046Z,0.90
2022-10-04T15:07:32.677Z,0.90
2022-10-04T15:07:43.303Z,1.10
2022-10-04T15:07:53.939Z,1.00
2022-10-04T15:08:04.582Z,1.00
2022-10-04T15:08:16.280Z,1.00
2022-10-04T15:08:25.924Z,1.10
2022-10-04T15:08:36.571Z,1.10
2022-10-04T15:08:47.217Z,1.00
2022-10-04T15:08:57.827Z,1.10
2022-10-04T15:09:08.475Z,1.30
2022-10-04T15:09:19.106Z,1.40
2022-10-04T15:09:30.617Z,1.30
2022-10-04T15:09:40.250Z,1.20
2022-10-04T15:09:53.174Z,1.10
2022-10-04T15:10:04.704Z,1.20
2022-10-04T15:10:16.801Z,1.10
2022-10-04T15:10:22.949Z,1.10
2022-10-04T15:10:38.085Z,0.90
2022-10-04T15:10:44.445Z,1.00
2022-10-04T15:10:55.616Z,1.00
2022-10-04T15:11:12.527Z,1.00
2022-10-04T15:11:17.642Z,1.10
2022-10-04T15:11:28.275Z,1.10
2022-10-04T15:11:38.918Z,1.20
2022-10-04T15:12:08.047Z,1.10
2022-10-04T15:12:40.755Z,1.00
2022-10-04T15:13:10.929Z,0.90
2022-10-04T15:14:12.535Z,1.00
2022-10-04T15:14:17.671Z,1.10
2022-10-04T15:14:28.311Z,1.00
2022-10-04T15:14:38.944Z,1.00
2022-10-04T15:14:49.603Z,1.10
2022-10-04T15:15:00.241Z,1.00
2022-10-04T15:15:10.895Z,1.00
2022-10-04T15:15:21.538Z,1.00
2022-10-04T15:15:32.269Z,1.00
2022-10-04T15:15:42.945Z,1.00
2022-10-04T15:15:53.624Z,1.00
2022-10-04T15:16:04.263Z,1.00
2022-10-04T15:16:14.965Z,1.00
2022-10-04T15:16:25.670Z,1.00
2022-10-04T15:16:36.323Z,0.90
2022-10-04T15:16:47.658Z,0.90
2022-10-04T15:16:57.602Z,1.00
2022-10-04T15:17:08.242Z,1.10
2022-10-04T15:17:18.924Z,1.10
2022-10-04T15:17:29.560Z,1.10
2022-10-04T15:17:45.642Z,1.10
2022-10-04T15:17:50.799Z,1.30
2022-10-04T15:18:01.448Z,1.50
2022-10-04T15:18:12.112Z,1.60
2022-10-04T15:18:22.752Z,1.30
2022-10-04T15:18:33.392Z,0.90
2022-10-04T15:18:45.015Z,0.90
2022-10-04T15:19:03.851Z,1.00
2022-10-04T15:19:08.946Z,1.10
2022-10-04T15:19:19.582Z,1.00
2022-10-04T15:19:31.072Z,1.90
2022-10-04T15:19:42.013Z,2.00
2022-10-04T15:19:52.150Z,1.80
2022-10-04T15:20:05.194Z,1.30
2022-10-04T15:20:13.419Z,1.20
2022-10-04T15:20:24.065Z,1.20
2022-10-04T15:20:34.712Z,1.10
2022-10-04T15:20:45.330Z,1.10
2022-10-04T15:20:58.518Z,1.10
2022-10-04T15:21:08.124Z,1.10
2022-10-04T15:21:17.282Z,1.30
2022-10-04T15:21:32.210Z,1.10
2022-10-04T15:21:38.484Z,1.20
2022-10-04T15:21:49.133Z,1.10
2022-10-04T15:21:59.991Z,1.10
2022-10-04T15:22:10.649Z,1.00
2022-10-04T15:22:21.292Z,1.20
2022-10-04T15:22:32.061Z,1.20
2022-10-04T15:22:42.706Z,1.00
2022-10-04T15:22:53.342Z,1.00
2022-10-04T15:23:04.006Z,1.10
2022-10-04T15:23:15.870Z,1.20
2022-10-04T15:23:25.539Z,1.20
2022-10-04T15:23:43.145Z,1.10
2022-10-04T15:23:48.291Z,1.20
2022-10-04T15:23:58.959Z,1.00
2022-10-04T15:24:09.609Z,1.00
2022-10-04T15:24:20.276Z,0.90
2022-10-04T15:24:30.893Z,1.10
2022-10-04T15:24:41.541Z,1.00
2022-10-04T15:24:52.180Z,1.10
2022-10-04T15:25:02.849Z,1.10
2022-10-04T15:25:13.481Z,1.10
2022-10-04T15:25:24.117Z,1.00
2022-10-04T15:25:34.735Z,1.10
2022-10-04T15:25:46.067Z,1.10
2022-10-04T15:25:56.209Z,1.10
2022-10-04T15:26:06.847Z,1.10
2022-10-04T15:26:17.450Z,1.20
2022-10-04T15:26:28.075Z,1.10
2022-10-04T15:26:38.721Z,1.10
2022-10-04T15:26:49.615Z,1.10
2022-10-04T15:26:59.886Z,1.20
2022-10-04T15:27:10.518Z,1.30
2022-10-04T15:27:21.151Z,1.30
2022-10-04T15:27:31.861Z,1.20
2022-10-04T15:27:42.320Z,1.30
2022-10-04T15:27:54.425Z,1.40
2022-10-04T15:28:03.621Z,1.30
2022-10-04T15:28:17.111Z,1.20
2022-10-04T15:28:28.942Z,1.30
2022-10-04T15:28:38.602Z,1.20
2022-10-04T15:28:47.211Z,1.30
2022-10-04T15:28:59.563Z,1.20
2022-10-04T15:29:07.735Z,1.30
2022-10-04T15:29:19.154Z,1.40
2022-10-04T15:29:31.671Z,1.30
2022-10-04T15:29:39.837Z,1.20
2022-10-04T15:29:50.612Z,1.20
2022-10-04T15:30:04.027Z,1.10
2022-10-04T15:30:12.174Z,1.10
2022-10-04T15:30:22.807Z,1.20
2022-10-04T15:30:33.806Z,1.20
2022-10-04T15:30:44.326Z,1.10
2022-10-04T15:30:55.671Z,1.20
2022-10-04T15:31:05.909Z,1.10
2022-10-04T15:31:16.608Z,1.20
2022-10-04T15:31:27.316Z,1.50
2022-10-04T15:31:38.053Z,1.70
2022-10-04T15:31:55.533Z,1.40
2022-10-04T15:32:00.714Z,1.30
2022-10-04T15:32:11.355Z,1.20
2022-10-04T15:32:22.004Z,1.30
2022-10-04T15:32:35.554Z,1.30
2022-10-04T15:32:43.504Z,1.30
2022-10-04T15:32:54.366Z,1.20
2022-10-04T15:33:05.004Z,1.30
2022-10-04T15:33:17.132Z,1.30
2022-10-04T15:33:26.291Z,1.20
2022-10-04T15:33:36.926Z,1.20
2022-10-04T15:33:50.553Z,1.10
2022-10-04T15:33:58.191Z,1.10
2022-10-04T15:34:08.894Z,1.10
2022-10-04T15:34:20.525Z,2.00
2022-10-04T15:34:30.197Z,1.90
2022-10-04T15:34:45.385Z,1.70
2022-10-04T15:34:52.837Z,1.20
2022-10-04T15:35:03.464Z,1.20
2022-10-04T15:35:14.094Z,1.30
2022-10-04T15:35:31.705Z,1.20
2022-10-04T15:35:36.841Z,1.20
2022-10-04T15:35:47.593Z,1.10
2022-10-04T15:35:59.499Z,1.20
2022-10-04T15:36:10.194Z,1.20
2022-10-04T15:36:19.823Z,1.30
2022-10-04T15:36:30.472Z,1.10
2022-10-04T15:36:49.188Z,1.20
2022-10-04T15:36:54.375Z,1.10
2022-10-04T15:37:05.009Z,1.20
2022-10-04T15:37:15.698Z,1.10
2022-10-04T15:37:27.136Z,1.40
2022-10-04T15:37:37.327Z,1.30
2022-10-04T15:37:47.978Z,1.20
2022-10-04T15:38:05.574Z,1.20
2022-10-04T15:38:10.690Z,1.30
2022-10-04T15:38:21.326Z,1.40
2022-10-04T15:38:31.958Z,1.30
2022-10-04T15:38:42.590Z,1.40
2022-10-04T15:38:53.223Z,1.40
2022-10-04T15:39:06.515Z,1.40
2022-10-04T15:39:14.705Z,1.20
2022-10-04T15:39:28.018Z,1.30
2022-10-04T15:39:38.645Z,1.20
2022-10-04T15:39:47.530Z,1.30
2022-10-04T15:40:00.477Z,1.20
2022-10-04T15:40:09.150Z,1.10
2022-10-04T15:40:22.745Z,1.30
2022-10-04T15:40:31.639Z,1.20
2022-10-04T15:40:41.802Z,1.30
2022-10-04T15:40:51.837Z,1.20
2022-10-04T15:41:02.671Z,1.30
2022-10-04T15:41:12.908Z,1.30
2022-10-04T15:41:23.975Z,1.10
2022-10-04T15:41:34.305Z,0.90
2022-10-04T15:41:45.020Z,1.10
2022-10-04T15:42:01.967Z,1.20
2022-10-04T15:42:07.100Z,1.40
2022-10-04T15:42:17.728Z,1.50
2022-10-04T15:42:31.011Z,1.50
2022-10-04T15:42:39.138Z,1.30
2022-10-04T15:42:49.834Z,1.40
2022-10-04T15:43:00.483Z,1.20
2022-10-04T15:43:11.119Z,1.30
2022-10-04T15:43:21.744Z,1.30
2022-10-04T15:43:34.358Z,1.40
2022-10-04T15:43:42.972Z,1.20